sensor_id;sensor_type;location;lat;lon;timestamp;pressure;altitude;pressure_sealevel;temperature;humidity
7768;BME280;3928;42.626;23.382;2022-11-23T00:01:21;92937.06;;;9.29;98.02
7768;BME280;3928;42.626;23.382;2022-11-23T00:03:50;92935.75;;;9.18;99.76
7768;BME280;3928;42.626;23.382;2022-11-23T00:06:17;92925.88;;;9.07;99.00
7768;BME280;3928;42.626;23.382;2022-11-23T00:08:45;92924.38;;;9.01;100.00
7768;BME280;3928;42.626;23.382;2022-11-23T00:11:12;92923.94;;;8.89;100.00
7768;BME280;3928;42.626;23.382;2022-11-23T00:13:39;92931.50;;;8.92;100.00
7768;BME280;3928;42.626;23.382;2022-11-23T00:16:09;92927.06;;;8.97;100.00
7768;BME280;3928;42.626;23.382;2022-11-23T00:18:37;92935.72;;;8.93;100.00
7768;BME280;3928;42.626;23.382;2022-11-23T00:21:05;92936.56;;;8.93;100.00
7768;BME280;3928;42.626;23.382;2022-11-23T00:23:32;92940.63;;;8.99;100.00
7768;BME280;3928;42.626;23.382;2022-11-23T00:25:59;92943.78;;;9.07;100.00
7768;BME280;3928;42.626;23.382;2022-11-23T00:28:26;92937.53;;;9.16;100.00
7768;BME280;3928;42.626;23.382;2022-11-23T00:30:52;92921.75;;;9.28;100.00
7768;BME280;3928;42.626;23.382;2022-11-23T00:33:21;92920.50;;;9.40;100.00
7768;BME280;3928;42.626;23.382;2022-11-23T00:35:57;92940.34;;;9.58;99.41
7768;BME280;3928;42.626;23.382;2022-11-23T00:38:23;92940.13;;;9.64;99.80
7768;BME280;3928;42.626;23.382;2022-11-23T00:40:56;92917.97;;;9.63;99.93
7768;BME280;3928;42.626;23.382;2022-11-23T00:43:23;92928.16;;;9.64;99.63
7768;BME280;3928;42.626;23.382;2022-11-23T00:46:01;92935.72;;;9.67;100.00
7768;BME280;3928;42.626;23.382;2022-11-23T00:48:29;92942.13;;;9.56;100.00
7768;BME280;3928;42.626;23.382;2022-11-23T00:50:56;92942.78;;;9.37;100.00
7768;BME280;3928;42.626;23.382;2022-11-23T00:53:23;92947.41;;;9.26;100.00
7768;BME280;3928;42.626;23.382;2022-11-23T00:55:50;92942.34;;;9.25;100.00
7768;BME280;3928;42.626;23.382;2022-11-23T00:58:18;92930.94;;;9.33;100.00
7768;BME280;3928;42.626;23.382;2022-11-23T01:00:45;92914.59;;;9.37;100.00
7768;BME280;3928;42.626;23.382;2022-11-23T01:03:12;92909.84;;;9.52;100.00
7768;BME280;3928;42.626;23.382;2022-11-23T01:05:40;92908.56;;;9.63;100.00
7768;BME280;3928;42.626;23.382;2022-11-23T01:08:08;92825.44;;;9.25;100.00
7768;BME280;3928;42.626;23.382;2022-11-23T01:10:34;92919.66;;;9.87;100.00
7768;BME280;3928;42.626;23.382;2022-11-23T01:13:01;92924.56;;;9.93;100.00
7768;BME280;3928;42.626;23.382;2022-11-23T01:15:28;92928.91;;;9.91;100.00
7768;BME280;3928;42.626;23.382;2022-11-23T01:17:54;92927.13;;;9.93;100.00
7768;BME280;3928;42.626;23.382;2022-11-23T01:20:21;92902.63;;;9.86;100.00
7768;BME280;3928;42.626;23.382;2022-11-23T01:22:51;92908.31;;;9.94;100.00
7768;BME280;3928;42.626;23.382;2022-11-23T01:25:18;92902.13;;;10.00;100.00
7768;BME280;3928;42.626;23.382;2022-11-23T01:27:45;92913.81;;;10.07;100.00
7768;BME280;3928;42.626;23.382;2022-11-23T01:30:12;92902.63;;;10.10;100.00
7768;BME280;3928;42.626;23.382;2022-11-23T01:32:39;92910.81;;;9.96;100.00
7768;BME280;3928;42.626;23.382;2022-11-23T01:35:06;92911.59;;;9.98;100.00
7768;BME280;3928;42.626;23.382;2022-11-23T01:37:33;92906.63;;;9.93;100.00
7768;BME280;3928;42.626;23.382;2022-11-23T01:40:01;92913.31;;;9.98;100.00
7768;BME280;3928;42.626;23.382;2022-11-23T01:42:48;92886.94;;;9.72;100.00
7768;BME280;3928;42.626;23.382;2022-11-23T01:45:34;92911.97;;;10.11;100.00
7768;BME280;3928;42.626;23.382;2022-11-23T01:48:04;92930.41;;;10.20;100.00
7768;BME280;3928;42.626;23.382;2022-11-23T01:50:34;92931.06;;;10.02;100.00
7768;BME280;3928;42.626;23.382;2022-11-23T01:53:01;92918.88;;;10.09;100.00
7768;BME280;3928;42.626;23.382;2022-11-23T01:55:30;92925.00;;;10.05;100.00
7768;BME280;3928;42.626;23.382;2022-11-23T01:57:56;92930.56;;;9.92;100.00
7768;BME280;3928;42.626;23.382;2022-11-23T02:00:23;92927.13;;;9.93;100.00
7768;BME280;3928;42.626;23.382;2022-11-23T02:02:54;92907.50;;;9.92;100.00
7768;BME280;3928;42.626;23.382;2022-11-23T02:05:24;92902.94;;;10.01;100.00
7768;BME280;3928;42.626;23.382;2022-11-23T02:07:53;92903.84;;;10.00;100.00
7768;BME280;3928;42.626;23.382;2022-11-23T02:10:21;92912.38;;;10.00;100.00
7768;BME280;3928;42.626;23.382;2022-11-23T02:12:49;92909.53;;;10.08;100.00
7768;BME280;3928;42.626;23.382;2022-11-23T02:15:16;92902.50;;;10.13;100.00
7768;BME280;3928;42.626;23.382;2022-11-23T02:17:43;92914.59;;;10.09;100.00
7768;BME280;3928;42.626;23.382;2022-11-23T02:20:13;92880.00;;;9.74;100.00
7768;BME280;3928;42.626;23.382;2022-11-23T02:22:48;92902.19;;;9.99;100.00
7768;BME280;3928;42.626;23.382;2022-11-23T02:25:26;92890.00;;;10.04;100.00
7768;BME280;3928;42.626;23.382;2022-11-23T02:27:58;92868.97;;;9.95;100.00
7768;BME280;3928;42.626;23.382;2022-11-23T02:30:26;92899.28;;;10.08;100.00
7768;BME280;3928;42.626;23.382;2022-11-23T02:32:54;92890.91;;;10.03;100.00
7768;BME280;3928;42.626;23.382;2022-11-23T02:35:21;92883.00;;;10.09;100.00
7768;BME280;3928;42.626;23.382;2022-11-23T02:37:49;92878.53;;;10.14;100.00
7768;BME280;3928;42.626;23.382;2022-11-23T02:40:24;92854.34;;;10.21;100.00
7768;BME280;3928;42.626;23.382;2022-11-23T02:42:53;92844.91;;;10.23;100.00
7768;BME280;3928;42.626;23.382;2022-11-23T02:45:26;92857.59;;;10.26;100.00
7768;BME280;3928;42.626;23.382;2022-11-23T02:47:56;92849.56;;;10.12;100.00
7768;BME280;3928;42.626;23.382;2022-11-23T02:50:23;92845.03;;;9.96;100.00
7768;BME280;3928;42.626;23.382;2022-11-23T02:52:50;92855.81;;;9.81;100.00
7768;BME280;3928;42.626;23.382;2022-11-23T02:55:17;92837.13;;;9.79;100.00
7768;BME280;3928;42.626;23.382;2022-11-23T02:57:44;92832.34;;;9.70;100.00
7768;BME280;3928;42.626;23.382;2022-11-23T03:00:12;92819.06;;;9.60;100.00
7768;BME280;3928;42.626;23.382;2022-11-23T03:02:40;92830.00;;;9.64;100.00
7768;BME280;3928;42.626;23.382;2022-11-23T03:05:07;92821.63;;;9.60;100.00
7768;BME280;3928;42.626;23.382;2022-11-23T03:07:34;92817.78;;;9.49;100.00
7768;BME280;3928;42.626;23.382;2022-11-23T03:10:02;92812.75;;;9.46;100.00
7768;BME280;3928;42.626;23.382;2022-11-23T03:12:28;92808.47;;;9.46;100.00
7768;BME280;3928;42.626;23.382;2022-11-23T03:14:55;92826.69;;;9.38;100.00
7768;BME280;3928;42.626;23.382;2022-11-23T03:17:22;92826.78;;;9.11;100.00
7768;BME280;3928;42.626;23.382;2022-11-23T03:19:50;92788.53;;;9.07;100.00
7768;BME280;3928;42.626;23.382;2022-11-23T03:22:17;92796.47;;;9.23;100.00
7768;BME280;3928;42.626;23.382;2022-11-23T03:24:44;92816.03;;;9.26;100.00
7768;BME280;3928;42.626;23.382;2022-11-23T03:27:10;92819.09;;;9.12;100.00
7768;BME280;3928;42.626;23.382;2022-11-23T03:29:37;92813.75;;;9.18;100.00
7768;BME280;3928;42.626;23.382;2022-11-23T03:32:04;92811.84;;;9.23;100.00
7768;BME280;3928;42.626;23.382;2022-11-23T03:34:31;92807.63;;;9.22;100.00
7768;BME280;3928;42.626;23.382;2022-11-23T03:36:59;92823.00;;;8.97;100.00
7768;BME280;3928;42.626;23.382;2022-11-23T03:39:26;92805.47;;;9.12;100.00
7768;BME280;3928;42.626;23.382;2022-11-23T03:41:53;92820.63;;;9.16;100.00
7768;BME280;3928;42.626;23.382;2022-11-23T03:44:20;92816.84;;;9.03;100.00
7768;BME280;3928;42.626;23.382;2022-11-23T03:46:47;92796.59;;;9.20;100.00
7768;BME280;3928;42.626;23.382;2022-11-23T03:49:14;92806.63;;;9.26;100.00
7768;BME280;3928;42.626;23.382;2022-11-23T03:51:41;92797.34;;;9.24;100.00
7768;BME280;3928;42.626;23.382;2022-11-23T03:54:09;92787.06;;;9.25;100.00
7768;BME280;3928;42.626;23.382;2022-11-23T03:56:36;92791.81;;;9.34;100.00
7768;BME280;3928;42.626;23.382;2022-11-23T03:59:03;92777.53;;;9.29;100.00
7768;BME280;3928;42.626;23.382;2022-11-23T04:01:30;92779.69;;;9.40;100.00
7768;BME280;3928;42.626;23.382;2022-11-23T04:03:56;92785.84;;;9.35;100.00
7768;BME280;3928;42.626;23.382;2022-11-23T04:06:23;92748.88;;;9.19;100.00
7768;BME280;3928;42.626;23.382;2022-11-23T04:08:50;92782.81;;;9.48;100.00
7768;BME280;3928;42.626;23.382;2022-11-23T04:11:18;92755.59;;;9.45;100.00
7768;BME280;3928;42.626;23.382;2022-11-23T04:13:45;92775.28;;;9.66;100.00
7768;BME280;3928;42.626;23.382;2022-11-23T04:16:12;92735.00;;;9.48;100.00
7768;BME280;3928;42.626;23.382;2022-11-23T04:18:38;92772.31;;;9.77;100.00
7768;BME280;3928;42.626;23.382;2022-11-23T04:21:06;92781.50;;;9.83;100.00
7768;BME280;3928;42.626;23.382;2022-11-23T04:23:32;92762.47;;;9.88;100.00
7768;BME280;3928;42.626;23.382;2022-11-23T04:25:59;92770.63;;;9.76;100.00
7768;BME280;3928;42.626;23.382;2022-11-23T04:28:27;92781.34;;;9.64;100.00
7768;BME280;3928;42.626;23.382;2022-11-23T04:30:54;92783.66;;;9.70;100.00
7768;BME280;3928;42.626;23.382;2022-11-23T04:33:23;92782.44;;;9.80;100.00
7768;BME280;3928;42.626;23.382;2022-11-23T04:35:50;92770.38;;;9.82;100.00
7768;BME280;3928;42.626;23.382;2022-11-23T04:38:16;92788.03;;;9.90;100.00
7768;BME280;3928;42.626;23.382;2022-11-23T04:40:45;92785.00;;;9.80;100.00
7768;BME280;3928;42.626;23.382;2022-11-23T04:43:12;92770.16;;;9.88;100.00
7768;BME280;3928;42.626;23.382;2022-11-23T04:45:40;92556.75;;;8.33;100.00
7768;BME280;3928;42.626;23.382;2022-11-23T04:48:07;92803.91;;;9.54;100.00
7768;BME280;3928;42.626;23.382;2022-11-23T04:50:34;92802.72;;;9.63;100.00
7768;BME280;3928;42.626;23.382;2022-11-23T04:53:03;92761.34;;;9.28;100.00
7768;BME280;3928;42.626;23.382;2022-11-23T04:55:29;92825.78;;;9.63;100.00
7768;BME280;3928;42.626;23.382;2022-11-23T04:57:56;92834.03;;;9.71;100.00
7768;BME280;3928;42.626;23.382;2022-11-23T05:00:23;92820.81;;;9.58;100.00
7768;BME280;3928;42.626;23.382;2022-11-23T05:02:51;92814.31;;;9.26;100.00
7768;BME280;3928;42.626;23.382;2022-11-23T05:05:18;92837.44;;;9.23;100.00
7768;BME280;3928;42.626;23.382;2022-11-23T05:07:45;92829.53;;;9.06;100.00
7768;BME280;3928;42.626;23.382;2022-11-23T05:10:12;92834.44;;;9.12;100.00
7768;BME280;3928;42.626;23.382;2022-11-23T05:12:38;92869.63;;;8.81;100.00
7768;BME280;3928;42.626;23.382;2022-11-23T05:15:06;92844.56;;;8.90;100.00
7768;BME280;3928;42.626;23.382;2022-11-23T05:17:33;92826.19;;;8.79;100.00
7768;BME280;3928;42.626;23.382;2022-11-23T05:20:01;92812.63;;;9.02;100.00
7768;BME280;3928;42.626;23.382;2022-11-23T05:22:28;92828.28;;;8.93;100.00
7768;BME280;3928;42.626;23.382;2022-11-23T05:24:55;92840.75;;;8.50;100.00
7768;BME280;3928;42.626;23.382;2022-11-23T05:27:21;92830.56;;;8.75;100.00
7768;BME280;3928;42.626;23.382;2022-11-23T05:29:48;92842.28;;;8.56;100.00
7768;BME280;3928;42.626;23.382;2022-11-23T05:32:15;92825.66;;;8.69;100.00
7768;BME280;3928;42.626;23.382;2022-11-23T05:34:42;92806.56;;;8.79;100.00
7768;BME280;3928;42.626;23.382;2022-11-23T05:37:10;92839.63;;;8.59;100.00
7768;BME280;3928;42.626;23.382;2022-11-23T05:39:37;92841.00;;;8.69;100.00
7768;BME280;3928;42.626;23.382;2022-11-23T05:42:04;92823.69;;;8.77;100.00
7768;BME280;3928;42.626;23.382;2022-11-23T05:44:31;92807.81;;;8.93;100.00
7768;BME280;3928;42.626;23.382;2022-11-23T05:46:58;92814.47;;;8.97;100.00
7768;BME280;3928;42.626;23.382;2022-11-23T05:49:25;92813.41;;;9.04;100.00
7768;BME280;3928;42.626;23.382;2022-11-23T05:51:51;92822.09;;;8.98;100.00
7768;BME280;3928;42.626;23.382;2022-11-23T05:54:20;92815.00;;;9.06;100.00
7768;BME280;3928;42.626;23.382;2022-11-23T05:56:47;92816.34;;;9.17;100.00
7768;BME280;3928;42.626;23.382;2022-11-23T05:59:13;92826.06;;;9.07;100.00
7768;BME280;3928;42.626;23.382;2022-11-23T06:01:40;92842.00;;;9.15;100.00
7768;BME280;3928;42.626;23.382;2022-11-23T06:04:07;92836.47;;;9.02;100.00
7768;BME280;3928;42.626;23.382;2022-11-23T06:06:34;92836.56;;;9.24;100.00
7768;BME280;3928;42.626;23.382;2022-11-23T06:09:00;92819.13;;;9.35;100.00
7768;BME280;3928;42.626;23.382;2022-11-23T06:11:29;92816.94;;;9.48;100.00
7768;BME280;3928;42.626;23.382;2022-11-23T06:13:57;92819.81;;;9.62;100.00
7768;BME280;3928;42.626;23.382;2022-11-23T06:16:24;92827.84;;;9.77;100.00
7768;BME280;3928;42.626;23.382;2022-11-23T06:18:50;92839.47;;;9.62;100.00
7768;BME280;3928;42.626;23.382;2022-11-23T06:21:17;92795.78;;;9.43;100.00
7768;BME280;3928;42.626;23.382;2022-11-23T06:23:45;92842.75;;;9.65;100.00
7768;BME280;3928;42.626;23.382;2022-11-23T06:26:12;92835.69;;;9.72;100.00
7768;BME280;3928;42.626;23.382;2022-11-23T06:28:40;92858.06;;;9.67;100.00
7768;BME280;3928;42.626;23.382;2022-11-23T06:31:08;92848.94;;;9.83;100.00
7768;BME280;3928;42.626;23.382;2022-11-23T06:33:35;92857.91;;;9.95;100.00
7768;BME280;3928;42.626;23.382;2022-11-23T06:36:03;92846.44;;;10.04;100.00
7768;BME280;3928;42.626;23.382;2022-11-23T06:38:30;92840.84;;;10.16;100.00
7768;BME280;3928;42.626;23.382;2022-11-23T06:40:57;92844.31;;;10.15;100.00
7768;BME280;3928;42.626;23.382;2022-11-23T06:43:24;92847.66;;;9.95;100.00
7768;BME280;3928;42.626;23.382;2022-11-23T06:45:53;92839.38;;;10.10;100.00
7768;BME280;3928;42.626;23.382;2022-11-23T06:48:20;92842.53;;;10.17;100.00
7768;BME280;3928;42.626;23.382;2022-11-23T06:50:46;92826.66;;;10.31;100.00
7768;BME280;3928;42.626;23.382;2022-11-23T06:53:13;92841.84;;;10.35;100.00
7768;BME280;3928;42.626;23.382;2022-11-23T06:55:40;92853.06;;;10.33;100.00
7768;BME280;3928;42.626;23.382;2022-11-23T06:58:08;92847.31;;;10.48;100.00
7768;BME280;3928;42.626;23.382;2022-11-23T07:00:35;92823.81;;;10.59;100.00
7768;BME280;3928;42.626;23.382;2022-11-23T07:03:03;92843.22;;;10.66;100.00
7768;BME280;3928;42.626;23.382;2022-11-23T07:05:30;92844.97;;;10.64;100.00
7768;BME280;3928;42.626;23.382;2022-11-23T07:07:57;92837.63;;;10.76;100.00
7768;BME280;3928;42.626;23.382;2022-11-23T07:10:23;92843.66;;;10.96;100.00
7768;BME280;3928;42.626;23.382;2022-11-23T07:12:51;92860.78;;;10.75;100.00
7768;BME280;3928;42.626;23.382;2022-11-23T07:15:18;92854.06;;;10.93;100.00
7768;BME280;3928;42.626;23.382;2022-11-23T07:17:44;92839.88;;;11.04;100.00
7768;BME280;3928;42.626;23.382;2022-11-23T07:20:13;92822.38;;;11.14;100.00
7768;BME280;3928;42.626;23.382;2022-11-23T07:22:40;92831.22;;;11.07;100.00
7768;BME280;3928;42.626;23.382;2022-11-23T07:25:07;92808.16;;;10.65;100.00
7768;BME280;3928;42.626;23.382;2022-11-23T07:27:36;92843.81;;;10.93;100.00
7768;BME280;3928;42.626;23.382;2022-11-23T07:30:03;92859.38;;;11.08;100.00
7768;BME280;3928;42.626;23.382;2022-11-23T07:32:30;92842.63;;;11.20;100.00
7768;BME280;3928;42.626;23.382;2022-11-23T07:34:57;92850.56;;;11.34;100.00
7768;BME280;3928;42.626;23.382;2022-11-23T07:37:25;92861.94;;;11.49;100.00
7768;BME280;3928;42.626;23.382;2022-11-23T07:39:52;92856.59;;;11.54;100.00
7768;BME280;3928;42.626;23.382;2022-11-23T07:42:19;92853.50;;;11.66;100.00
7768;BME280;3928;42.626;23.382;2022-11-23T07:44:46;92860.09;;;11.71;100.00
7768;BME280;3928;42.626;23.382;2022-11-23T07:47:13;92860.44;;;11.84;100.00
7768;BME280;3928;42.626;23.382;2022-11-23T07:49:40;92855.84;;;11.91;100.00
7768;BME280;3928;42.626;23.382;2022-11-23T07:52:07;92856.53;;;11.94;100.00
7768;BME280;3928;42.626;23.382;2022-11-23T07:54:35;92862.25;;;12.01;100.00
7768;BME280;3928;42.626;23.382;2022-11-23T07:57:02;92853.69;;;12.00;100.00
7768;BME280;3928;42.626;23.382;2022-11-23T07:59:29;92851.06;;;12.02;100.00
7768;BME280;3928;42.626;23.382;2022-11-23T08:01:55;92856.13;;;12.04;100.00
7768;BME280;3928;42.626;23.382;2022-11-23T08:04:22;92863.53;;;11.91;100.00
7768;BME280;3928;42.626;23.382;2022-11-23T08:06:49;92841.72;;;11.81;100.00
7768;BME280;3928;42.626;23.382;2022-11-23T08:09:16;92870.84;;;12.00;100.00
7768;BME280;3928;42.626;23.382;2022-11-23T08:11:44;92864.19;;;11.96;99.44
7768;BME280;3928;42.626;23.382;2022-11-23T08:14:11;92846.63;;;11.66;100.00
7768;BME280;3928;42.626;23.382;2022-11-23T08:16:38;92834.00;;;11.81;100.00
7768;BME280;3928;42.626;23.382;2022-11-23T08:19:06;92848.19;;;11.89;100.00
7768;BME280;3928;42.626;23.382;2022-11-23T08:21:33;92852.38;;;11.71;100.00
7768;BME280;3928;42.626;23.382;2022-11-23T08:24:00;92828.88;;;11.81;100.00
7768;BME280;3928;42.626;23.382;2022-11-23T08:26:26;92827.47;;;11.74;100.00
7768;BME280;3928;42.626;23.382;2022-11-23T08:28:55;92833.59;;;11.90;100.00
7768;BME280;3928;42.626;23.382;2022-11-23T08:31:22;92833.47;;;11.93;100.00
7768;BME280;3928;42.626;23.382;2022-11-23T08:33:49;92847.91;;;12.14;100.00
7768;BME280;3928;42.626;23.382;2022-11-23T08:36:16;92846.53;;;12.26;100.00
7768;BME280;3928;42.626;23.382;2022-11-23T08:38:42;92844.84;;;12.44;100.00
7768;BME280;3928;42.626;23.382;2022-11-23T08:41:09;92849.34;;;12.39;100.00
7768;BME280;3928;42.626;23.382;2022-11-23T08:43:36;92847.78;;;12.53;100.00
7768;BME280;3928;42.626;23.382;2022-11-23T08:46:04;92829.50;;;12.59;99.88
7768;BME280;3928;42.626;23.382;2022-11-23T08:48:31;92826.69;;;12.64;100.00
7768;BME280;3928;42.626;23.382;2022-11-23T08:50:58;92839.44;;;12.84;100.00
7768;BME280;3928;42.626;23.382;2022-11-23T08:53:25;92809.00;;;12.75;99.67
7768;BME280;3928;42.626;23.382;2022-11-23T08:55:52;92858.00;;;13.08;98.59
7768;BME280;3928;42.626;23.382;2022-11-23T08:58:19;92859.25;;;13.19;98.54
7768;BME280;3928;42.626;23.382;2022-11-23T09:00:46;92868.25;;;13.27;97.70
7768;BME280;3928;42.626;23.382;2022-11-23T09:03:14;92876.59;;;13.32;97.54
7768;BME280;3928;42.626;23.382;2022-11-23T09:05:41;92855.69;;;13.38;97.98
7768;BME280;3928;42.626;23.382;2022-11-23T09:08:08;92833.38;;;13.37;96.80
7768;BME280;3928;42.626;23.382;2022-11-23T09:10:34;92822.66;;;13.29;95.56
7768;BME280;3928;42.626;23.382;2022-11-23T09:13:01;92843.41;;;13.26;94.95
7768;BME280;3928;42.626;23.382;2022-11-23T09:15:28;92840.06;;;13.24;95.82
7768;BME280;3928;42.626;23.382;2022-11-23T09:17:56;92844.28;;;13.25;95.74
7768;BME280;3928;42.626;23.382;2022-11-23T09:20:24;92836.94;;;13.35;95.31
7768;BME280;3928;42.626;23.382;2022-11-23T09:22:51;92824.91;;;13.35;94.80
7768;BME280;3928;42.626;23.382;2022-11-23T09:25:18;92769.91;;;13.02;95.75
7768;BME280;3928;42.626;23.382;2022-11-23T09:27:45;92815.81;;;12.94;96.77
7768;BME280;3928;42.626;23.382;2022-11-23T09:30:13;92835.47;;;12.60;98.75
7768;BME280;3928;42.626;23.382;2022-11-23T09:32:41;92822.13;;;12.52;99.19
7768;BME280;3928;42.626;23.382;2022-11-23T09:35:08;92825.25;;;12.76;99.10
7768;BME280;3928;42.626;23.382;2022-11-23T09:37:36;92824.00;;;12.84;98.06
7768;BME280;3928;42.626;23.382;2022-11-23T09:40:04;92812.34;;;12.95;97.93
7768;BME280;3928;42.626;23.382;2022-11-23T09:45:35;92837.03;;;12.81;96.76
7768;BME280;3928;42.626;23.382;2022-11-23T09:51:10;92798.47;;;12.63;97.01
7768;BME280;3928;42.626;23.382;2022-11-23T09:53:44;92826.84;;;12.61;97.46
7768;BME280;3928;42.626;23.382;2022-11-23T09:56:16;92815.88;;;12.57;97.62
7768;BME280;3928;42.626;23.382;2022-11-23T09:58:44;92810.06;;;12.71;100.00
7768;BME280;3928;42.626;23.382;2022-11-23T10:01:14;92824.28;;;13.13;100.00
7768;BME280;3928;42.626;23.382;2022-11-23T10:03:42;92814.75;;;13.32;98.95
7768;BME280;3928;42.626;23.382;2022-11-23T10:06:16;92809.81;;;13.45;97.89
7768;BME280;3928;42.626;23.382;2022-11-23T10:08:53;92800.28;;;13.63;100.00
7768;BME280;3928;42.626;23.382;2022-11-23T10:11:45;92811.56;;;13.93;94.32
7768;BME280;3928;42.626;23.382;2022-11-23T10:14:37;92824.25;;;13.65;92.39
7768;BME280;3928;42.626;23.382;2022-11-23T10:17:10;92816.09;;;13.72;92.06
7768;BME280;3928;42.626;23.382;2022-11-23T10:19:52;92821.03;;;13.77;92.63
7768;BME280;3928;42.626;23.382;2022-11-23T10:22:27;92823.16;;;13.69;91.49
7768;BME280;3928;42.626;23.382;2022-11-23T10:24:58;92817.97;;;13.53;92.05
7768;BME280;3928;42.626;23.382;2022-11-23T10:27:28;92816.81;;;13.59;92.32
7768;BME280;3928;42.626;23.382;2022-11-23T10:29:57;92806.31;;;13.46;91.07
7768;BME280;3928;42.626;23.382;2022-11-23T10:32:28;92815.97;;;13.58;91.55
7768;BME280;3928;42.626;23.382;2022-11-23T10:35:01;92816.59;;;13.63;92.32
7768;BME280;3928;42.626;23.382;2022-11-23T10:37:31;92820.00;;;13.64;91.74
7768;BME280;3928;42.626;23.382;2022-11-23T10:39:59;92820.84;;;13.64;90.62
7768;BME280;3928;42.626;23.382;2022-11-23T10:42:30;92797.09;;;13.58;91.52
7768;BME280;3928;42.626;23.382;2022-11-23T10:44:58;92800.75;;;13.87;93.74
7768;BME280;3928;42.626;23.382;2022-11-23T10:47:36;92825.44;;;13.91;89.07
7768;BME280;3928;42.626;23.382;2022-11-23T10:50:20;92786.59;;;13.45;89.42
7768;BME280;3928;42.626;23.382;2022-11-23T10:52:52;92779.72;;;13.45;90.63
7768;BME280;3928;42.626;23.382;2022-11-23T10:55:25;92824.94;;;13.84;92.64
7768;BME280;3928;42.626;23.382;2022-11-23T10:57:52;92829.28;;;13.51;91.69
7768;BME280;3928;42.626;23.382;2022-11-23T11:00:21;92821.09;;;13.42;93.63
7768;BME280;3928;42.626;23.382;2022-11-23T11:02:49;92794.81;;;13.36;94.48
7768;BME280;3928;42.626;23.382;2022-11-23T11:05:31;92800.53;;;13.58;94.54
7768;BME280;3928;42.626;23.382;2022-11-23T11:08:00;92807.34;;;13.59;92.94
7768;BME280;3928;42.626;23.382;2022-11-23T11:10:35;92822.25;;;13.70;90.32
7768;BME280;3928;42.626;23.382;2022-11-23T11:13:07;92803.28;;;13.71;90.06
7768;BME280;3928;42.626;23.382;2022-11-23T11:15:51;92806.88;;;13.68;91.19
7768;BME280;3928;42.626;23.382;2022-11-23T11:18:19;92815.25;;;13.72;90.63
7768;BME280;3928;42.626;23.382;2022-11-23T11:20:46;92806.91;;;14.00;88.16
7768;BME280;3928;42.626;23.382;2022-11-23T11:23:16;92801.34;;;14.23;89.25
7768;BME280;3928;42.626;23.382;2022-11-23T11:25:46;92785.75;;;14.41;85.74
7768;BME280;3928;42.626;23.382;2022-11-23T11:28:23;92794.41;;;14.55;84.60
7768;BME280;3928;42.626;23.382;2022-11-23T11:30:57;92788.72;;;14.65;82.60
7768;BME280;3928;42.626;23.382;2022-11-23T11:33:29;92792.47;;;14.75;77.68
7768;BME280;3928;42.626;23.382;2022-11-23T11:36:00;92785.13;;;14.83;80.34
7768;BME280;3928;42.626;23.382;2022-11-23T11:38:32;92794.00;;;14.93;76.75
7768;BME280;3928;42.626;23.382;2022-11-23T11:41:05;92788.78;;;14.79;75.38
7768;BME280;3928;42.626;23.382;2022-11-23T11:43:35;92796.19;;;14.85;73.84
7768;BME280;3928;42.626;23.382;2022-11-23T11:46:09;92786.56;;;14.73;74.00
7768;BME280;3928;42.626;23.382;2022-11-23T11:48:40;92793.03;;;14.80;73.85
7768;BME280;3928;42.626;23.382;2022-11-23T11:51:13;92785.69;;;14.88;79.20
7768;BME280;3928;42.626;23.382;2022-11-23T11:53:50;92801.06;;;15.05;77.69
7768;BME280;3928;42.626;23.382;2022-11-23T11:56:26;92807.59;;;15.11;75.42
7768;BME280;3928;42.626;23.382;2022-11-23T11:58:56;92809.66;;;14.90;76.19
7768;BME280;3928;42.626;23.382;2022-11-23T12:01:32;92789.13;;;14.73;75.39
7768;BME280;3928;42.626;23.382;2022-11-23T12:04:05;92808.75;;;14.61;70.12
7768;BME280;3928;42.626;23.382;2022-11-23T12:06:38;92783.25;;;14.08;66.88
7768;BME280;3928;42.626;23.382;2022-11-23T12:09:12;92792.41;;;14.29;68.12
7768;BME280;3928;42.626;23.382;2022-11-23T12:11:43;92774.19;;;14.78;67.44
7768;BME280;3928;42.626;23.382;2022-11-23T12:14:12;92784.38;;;15.25;66.26
7768;BME280;3928;42.626;23.382;2022-11-23T12:16:46;92775.47;;;15.73;65.67
7768;BME280;3928;42.626;23.382;2022-11-23T12:19:19;92774.94;;;16.24;66.40
7768;BME280;3928;42.626;23.382;2022-11-23T12:24:56;92783.16;;;17.49;59.99
7768;BME280;3928;42.626;23.382;2022-11-23T12:27:32;92779.66;;;17.89;61.01
7768;BME280;3928;42.626;23.382;2022-11-23T12:30:17;92770.38;;;18.34;61.33
7768;BME280;3928;42.626;23.382;2022-11-23T12:32:59;92770.50;;;19.04;58.33
7768;BME280;3928;42.626;23.382;2022-11-23T12:35:37;92765.75;;;19.91;54.42
7768;BME280;3928;42.626;23.382;2022-11-23T12:38:15;92767.31;;;20.70;50.55
7768;BME280;3928;42.626;23.382;2022-11-23T12:40:59;92760.53;;;21.11;47.55
7768;BME280;3928;42.626;23.382;2022-11-23T12:43:44;92755.50;;;21.19;45.02
7768;BME280;3928;42.626;23.382;2022-11-23T12:46:18;92765.22;;;21.70;44.28
7768;BME280;3928;42.626;23.382;2022-11-23T12:49:00;92764.09;;;22.24;42.39
7768;BME280;3928;42.626;23.382;2022-11-23T12:51:35;92753.91;;;22.70;41.45
7768;BME280;3928;42.626;23.382;2022-11-23T12:54:17;92753.53;;;23.43;38.72
7768;BME280;3928;42.626;23.382;2022-11-23T12:56:58;92761.34;;;24.28;37.21
7768;BME280;3928;42.626;23.382;2022-11-23T12:59:36;92763.16;;;25.00;34.09
7768;BME280;3928;42.626;23.382;2022-11-23T13:02:11;92756.69;;;25.66;32.40
7768;BME280;3928;42.626;23.382;2022-11-23T13:05:04;92757.88;;;26.23;31.24
7768;BME280;3928;42.626;23.382;2022-11-23T13:07:55;92752.84;;;26.64;29.81
7768;BME280;3928;42.626;23.382;2022-11-23T13:10:54;92771.81;;;26.76;28.61
7768;BME280;3928;42.626;23.382;2022-11-23T13:13:32;92760.63;;;26.40;29.45
7768;BME280;3928;42.626;23.382;2022-11-23T13:16:26;92769.75;;;25.76;28.47
7768;BME280;3928;42.626;23.382;2022-11-23T13:19:08;92764.06;;;25.62;29.65
7768;BME280;3928;42.626;23.382;2022-11-23T13:21:39;92764.53;;;25.58;29.55
7768;BME280;3928;42.626;23.382;2022-11-23T13:24:26;92766.91;;;25.33;29.72
7768;BME280;3928;42.626;23.382;2022-11-23T13:29:54;92780.59;;;24.46;29.98
7768;BME280;3928;42.626;23.382;2022-11-23T13:32:55;92782.56;;;23.78;31.10